createdAt,value
2019-05-12T00:01:04.979Z,23.20
2019-05-12T00:02:28.733Z,23.20
2019-05-12T00:03:49.499Z,23.20
2019-05-12T00:05:10.966Z,23.20
2019-05-12T00:06:32.569Z,23.20
2019-05-12T00:07:53.897Z,23.20
2019-05-12T00:09:15.578Z,23.20
2019-05-12T00:10:38.711Z,23.20
2019-05-12T00:12:00.363Z,23.20
2019-05-12T00:13:22.174Z,23.20
2019-05-12T00:14:43.869Z,23.20
2019-05-12T00:16:05.431Z,23.20
2019-05-12T00:17:28.450Z,23.20
2019-05-12T00:18:50.072Z,23.20
2019-05-12T00:20:11.655Z,23.20
2019-05-12T00:21:32.983Z,23.20
2019-05-12T00:22:54.639Z,23.20
2019-05-12T00:24:18.510Z,23.20
2019-05-12T00:25:39.515Z,23.20
2019-05-12T00:27:01.010Z,23.20
2019-05-12T00:28:22.335Z,23.20
2019-05-12T00:29:45.023Z,23.20
2019-05-12T00:31:08.335Z,23.20
2019-05-12T00:32:29.479Z,23.20
2019-05-12T00:33:51.157Z,23.20
2019-05-12T00:35:12.873Z,23.20
2019-05-12T00:36:34.642Z,23.20
2019-05-12T00:37:57.766Z,23.20
2019-05-12T00:39:19.332Z,23.20
2019-05-12T00:40:40.559Z,23.20
2019-05-12T00:42:02.175Z,23.20
2019-05-12T00:43:24.044Z,23.20
2019-05-12T00:44:47.741Z,23.20
2019-05-12T00:46:09.504Z,23.20
2019-05-12T00:47:31.026Z,23.20
2019-05-12T00:48:52.326Z,23.20
2019-05-12T00:50:14.540Z,23.20
2019-05-12T00:51:38.350Z,23.20
2019-05-12T00:53:00.435Z,23.20
2019-05-12T00:54:21.755Z,23.20
2019-05-12T00:55:42.998Z,23.20
2019-05-12T00:57:04.893Z,23.20
2019-05-12T00:58:27.797Z,23.20
2019-05-12T00:59:49.239Z,23.20
2019-05-12T01:01:10.884Z,23.20
2019-05-12T01:02:32.794Z,23.20
2019-05-12T01:03:54.450Z,23.20
2019-05-12T01:05:17.739Z,23.20
2019-05-12T01:06:39.077Z,23.20
2019-05-12T01:08:00.429Z,23.20
2019-05-12T01:09:22.005Z,23.20
2019-05-12T01:10:43.615Z,23.20
2019-05-12T01:12:05.137Z,23.20
2019-05-12T01:13:27.965Z,23.20
2019-05-12T01:14:49.546Z,23.20
2019-05-12T01:16:11.166Z,23.20
2019-05-12T01:17:32.786Z,23.20
2019-05-12T01:18:54.538Z,23.20
2019-05-12T01:20:17.894Z,23.10
2019-05-12T01:21:38.770Z,23.20
2019-05-12T01:23:00.096Z,23.20
2019-05-12T01:24:22.056Z,23.20
2019-05-12T01:25:43.751Z,23.20
2019-05-12T01:27:05.349Z,23.20
2019-05-12T01:28:27.833Z,23.10
2019-05-12T01:29:49.620Z,23.20
2019-05-12T01:31:11.082Z,23.20
2019-05-12T01:32:32.631Z,23.20
2019-05-12T01:33:54.231Z,23.20
2019-05-12T01:35:15.843Z,23.10
2019-05-12T01:36:38.079Z,23.20
2019-05-12T01:38:01.536Z,23.10
2019-05-12T01:39:23.334Z,23.20
2019-05-12T01:40:44.928Z,23.10
2019-05-12T01:42:09.018Z,23.10
2019-05-12T01:43:29.432Z,23.10
2019-05-12T01:44:51.048Z,23.10
2019-05-12T01:46:12.304Z,23.20
2019-05-12T01:47:33.771Z,23.20
2019-05-12T01:48:55.018Z,23.20
2019-05-12T01:50:17.782Z,23.10
2019-05-12T01:51:39.263Z,23.20
2019-05-12T01:53:00.923Z,23.10
2019-05-12T01:54:22.726Z,23.10
2019-05-12T01:55:44.365Z,23.10
2019-05-12T01:57:07.988Z,23.10
2019-05-12T01:58:29.207Z,23.20
2019-05-12T01:59:51.018Z,23.10
2019-05-12T02:01:12.597Z,23.10
2019-05-12T02:02:34.240Z,23.10
2019-05-12T02:03:55.535Z,23.10
2019-05-12T02:05:18.336Z,23.10
2019-05-12T02:06:39.746Z,23.10
2019-05-12T02:08:01.011Z,23.10
2019-05-12T02:09:22.648Z,23.20
2019-05-12T02:10:44.730Z,23.10
2019-05-12T02:12:08.135Z,23.10
2019-05-12T02:13:29.271Z,23.20
2019-05-12T02:14:50.794Z,23.10
2019-05-12T02:16:12.636Z,23.10
2019-05-12T02:17:34.030Z,23.10
2019-05-12T02:18:55.646Z,23.10
2019-05-12T02:20:18.045Z,23.10
2019-05-12T02:21:39.808Z,23.10
2019-05-12T02:23:01.791Z,23.10
2019-05-12T02:24:27.341Z,23.10
2019-05-12T02:25:48.372Z,23.10
2019-05-12T02:27:10.463Z,23.10
2019-05-12T02:28:31.711Z,23.10
2019-05-12T02:29:53.463Z,23.10
2019-05-12T02:31:14.759Z,23.10
2019-05-12T02:32:48.160Z,23.10
2019-05-12T02:33:59.839Z,23.10
2019-05-12T02:35:24.502Z,23.10
2019-05-12T02:36:44.802Z,23.10
2019-05-12T02:38:06.705Z,23.10
2019-05-12T02:39:28.039Z,23.10
2019-05-12T02:40:49.651Z,23.10
2019-05-12T02:42:11.056Z,23.10
2019-05-12T02:43:34.827Z,23.10
2019-05-12T02:44:55.387Z,23.10
2019-05-12T02:46:16.672Z,23.10
2019-05-12T02:47:38.090Z,23.10
2019-05-12T02:49:00.092Z,23.10
2019-05-12T02:50:28.020Z,23.10
2019-05-12T02:51:49.380Z,23.10
2019-05-12T02:53:14.226Z,23.10
2019-05-12T02:54:50.561Z,23.10
2019-05-12T02:55:57.211Z,23.10
2019-05-12T02:57:18.859Z,23.10
2019-05-12T02:58:40.468Z,23.10
2019-05-12T03:00:04.751Z,23.10
2019-05-12T03:01:27.527Z,23.10
2019-05-12T03:02:48.909Z,23.10
2019-05-12T03:04:10.599Z,23.10
2019-05-12T03:05:34.853Z,23.10
2019-05-12T03:06:55.523Z,23.10
2019-05-12T03:08:17.289Z,23.10
2019-05-12T03:09:38.772Z,23.10
2019-05-12T03:11:00.247Z,23.10
2019-05-12T03:12:25.271Z,23.10
2019-05-12T03:13:45.123Z,23.10
2019-05-12T03:15:06.624Z,23.10
2019-05-12T03:16:28.340Z,23.10
2019-05-12T03:17:49.620Z,23.10
2019-05-12T03:19:10.783Z,23.10
2019-05-12T03:20:35.008Z,23.10
2019-05-12T03:21:55.875Z,23.10
2019-05-12T03:23:19.370Z,23.10
2019-05-12T03:24:40.447Z,23.10
2019-05-12T03:26:05.226Z,23.10
2019-05-12T03:27:25.797Z,23.10
2019-05-12T03:28:47.258Z,23.10
2019-05-12T03:30:12.006Z,23.10
2019-05-12T03:31:37.650Z,23.10
2019-05-12T03:32:58.002Z,23.10
2019-05-12T03:34:20.219Z,23.10
2019-05-12T03:35:44.283Z,23.10
2019-05-12T03:37:07.916Z,23.10
2019-05-12T03:38:27.702Z,23.10
2019-05-12T03:39:49.640Z,23.10
2019-05-12T03:41:10.983Z,23.10
2019-05-12T03:42:35.414Z,23.10
2019-05-12T03:43:55.504Z,23.10
2019-05-12T03:45:17.091Z,23.10
2019-05-12T03:46:38.864Z,23.10
2019-05-12T03:48:00.451Z,23.10
2019-05-12T03:49:24.407Z,23.10
2019-05-12T03:50:46.290Z,23.10
2019-05-12T03:52:08.220Z,23.10
2019-05-12T03:53:29.624Z,23.10
2019-05-12T03:54:50.929Z,23.10
2019-05-12T03:56:15.043Z,23.10
2019-05-12T03:57:35.656Z,23.10
2019-05-12T03:58:58.011Z,23.10
2019-05-12T04:00:19.434Z,23.10
2019-05-12T04:01:41.009Z,23.10
2019-05-12T04:03:04.793Z,23.10
2019-05-12T04:04:26.461Z,23.10
2019-05-12T04:05:47.762Z,23.10
2019-05-12T04:07:09.331Z,23.10
2019-05-12T04:08:30.748Z,23.10
2019-05-12T04:09:54.535Z,23.10
2019-05-12T04:11:15.048Z,23.10
2019-05-12T04:12:37.143Z,23.10
2019-05-12T04:13:58.523Z,23.10
2019-05-12T04:15:19.973Z,23.10
2019-05-12T04:16:41.300Z,23.10
2019-05-12T04:18:05.533Z,23.10
2019-05-12T04:19:25.786Z,23.10
2019-05-12T04:20:47.417Z,23.10
2019-05-12T04:22:08.775Z,23.00
2019-05-12T04:23:31.053Z,23.10
2019-05-12T04:24:55.168Z,23.00
2019-05-12T04:26:17.071Z,23.10
2019-05-12T04:27:38.415Z,23.00
2019-05-12T04:28:59.971Z,23.10
2019-05-12T04:30:24.709Z,23.10
2019-05-12T04:31:44.545Z,23.10
2019-05-12T04:33:06.058Z,23.10
2019-05-12T04:34:27.219Z,23.10
2019-05-12T04:35:48.714Z,23.10
2019-05-12T04:37:10.116Z,23.10
2019-05-12T04:38:31.621Z,23.10
2019-05-12T04:39:55.458Z,23.10
2019-05-12T04:41:19.807Z,23.10
2019-05-12T04:42:39.044Z,23.00
2019-05-12T04:44:00.456Z,23.10
2019-05-12T04:45:21.715Z,23.10
2019-05-12T04:46:45.497Z,23.00
2019-05-12T04:48:07.588Z,23.00
2019-05-12T04:49:29.243Z,23.10
2019-05-12T04:50:50.535Z,23.10
2019-05-12T04:52:15.339Z,23.00
2019-05-12T04:53:35.494Z,23.10
2019-05-12T04:54:57.651Z,23.10
2019-05-12T04:56:20.653Z,23.10
2019-05-12T04:57:45.113Z,23.10
2019-05-12T04:59:05.835Z,23.10
2019-05-12T05:00:27.370Z,23.10
2019-05-12T05:01:49.144Z,23.10
2019-05-12T05:03:10.760Z,23.10
2019-05-12T05:04:34.637Z,23.10
2019-05-12T05:05:55.078Z,23.10
2019-05-12T05:07:16.746Z,23.10
2019-05-12T05:08:38.094Z,23.10
2019-05-12T05:09:59.728Z,23.10
2019-05-12T05:11:21.203Z,23.10
2019-05-12T05:12:44.956Z,23.10
2019-05-12T05:14:05.628Z,23.10
2019-05-12T05:15:27.242Z,23.10
2019-05-12T05:16:48.535Z,23.10
2019-05-12T05:18:10.078Z,23.10
2019-05-12T05:19:33.622Z,23.10
2019-05-12T05:20:54.808Z,23.10
2019-05-12T05:22:16.411Z,23.10
2019-05-12T05:23:38.078Z,23.10
2019-05-12T05:24:59.703Z,23.10
2019-05-12T05:26:27.902Z,23.10
2019-05-12T05:27:45.105Z,23.10
2019-05-12T05:29:06.442Z,23.10
2019-05-12T05:30:27.927Z,23.10
2019-05-12T05:31:49.148Z,23.10
2019-05-12T05:33:10.849Z,23.10
2019-05-12T05:34:34.271Z,23.10
2019-05-12T05:35:55.385Z,23.20
2019-05-12T05:37:16.727Z,23.10
2019-05-12T05:38:38.478Z,23.10
2019-05-12T05:40:00.151Z,23.10
2019-05-12T05:41:23.921Z,23.10
2019-05-12T05:42:44.558Z,23.10
2019-05-12T05:44:06.226Z,23.10
2019-05-12T05:45:27.644Z,23.20
2019-05-12T05:46:50.284Z,23.20
2019-05-12T05:48:13.568Z,23.20
2019-05-12T05:49:35.332Z,23.20
2019-05-12T05:51:00.007Z,23.20
2019-05-12T05:52:26.586Z,23.20
2019-05-12T05:53:44.235Z,23.20
2019-05-12T05:55:14.870Z,23.20
2019-05-12T05:56:39.795Z,23.20
2019-05-12T05:57:53.511Z,23.20
2019-05-12T05:59:15.312Z,23.20
2019-05-12T06:00:39.300Z,23.20
2019-05-12T06:02:00.421Z,23.20
2019-05-12T06:03:27.602Z,23.20
2019-05-12T06:04:49.684Z,23.20
2019-05-12T06:06:12.390Z,23.20
2019-05-12T06:07:34.614Z,23.20
2019-05-12T06:08:54.505Z,23.20
2019-05-12T06:10:15.882Z,23.20
2019-05-12T06:11:37.695Z,23.20
2019-05-12T06:12:59.411Z,23.20
2019-05-12T06:14:20.844Z,23.20
2019-05-12T06:15:43.345Z,23.20
2019-05-12T06:17:06.419Z,23.20
2019-05-12T06:18:29.041Z,23.20
2019-05-12T06:19:50.771Z,23.20
2019-05-12T06:21:13.703Z,23.20
2019-05-12T06:22:35.609Z,23.20
2019-05-12T06:23:57.290Z,23.20
2019-05-12T06:25:18.969Z,23.20
2019-05-12T06:26:54.617Z,23.20
2019-05-12T06:28:04.576Z,23.20
2019-05-12T06:29:26.399Z,23.20
2019-05-12T06:30:50.244Z,23.20
2019-05-12T06:32:11.135Z,23.20
2019-05-12T06:33:36.130Z,23.20
2019-05-12T06:34:57.071Z,23.20
2019-05-12T06:36:22.190Z,23.20
2019-05-12T06:37:41.471Z,23.20
2019-05-12T06:39:05.065Z,23.20
2019-05-12T06:40:30.864Z,23.20
2019-05-12T06:41:49.427Z,23.20
2019-05-12T06:43:13.721Z,23.20
2019-05-12T06:44:34.343Z,23.20
2019-05-12T06:45:56.888Z,23.20
2019-05-12T06:47:18.283Z,23.20
2019-05-12T06:48:42.379Z,23.20
2019-05-12T06:50:04.066Z,23.20
2019-05-12T06:51:26.013Z,23.20
2019-05-12T06:52:48.990Z,23.20
2019-05-12T06:54:12.658Z,23.20
2019-05-12T06:55:38.859Z,23.20
2019-05-12T06:57:16.556Z,23.20
2019-05-12T06:58:25.924Z,23.20
2019-05-12T06:59:51.040Z,23.20
2019-05-12T07:01:10.421Z,23.20
2019-05-12T07:02:30.235Z,23.20
2019-05-12T07:03:53.393Z,23.20
2019-05-12T07:05:15.716Z,23.20
2019-05-12T07:06:37.320Z,23.20
2019-05-12T07:07:58.902Z,23.20
2019-05-12T07:09:26.694Z,23.20
2019-05-12T07:10:46.623Z,23.20
2019-05-12T07:12:07.226Z,23.20
2019-05-12T07:13:29.540Z,23.20
2019-05-12T07:14:57.574Z,23.20
2019-05-12T07:16:16.627Z,23.20
2019-05-12T07:17:43.599Z,23.20
2019-05-12T07:19:00.706Z,23.20
2019-05-12T07:20:24.080Z,23.20
2019-05-12T07:21:50.669Z,23.20
2019-05-12T07:23:08.751Z,23.20
2019-05-12T07:24:30.284Z,23.20
2019-05-12T07:25:51.991Z,23.20
2019-05-12T07:27:14.093Z,23.20
2019-05-12T07:28:40.183Z,23.20
2019-05-12T07:29:59.112Z,23.20
2019-05-12T07:31:23.186Z,23.20
2019-05-12T07:32:43.479Z,23.30
2019-05-12T07:34:07.693Z,23.20
2019-05-12T07:35:28.423Z,23.20
2019-05-12T07:36:49.819Z,23.20
2019-05-12T07:38:12.040Z,23.20
2019-05-12T07:39:37.079Z,23.20
2019-05-12T07:41:00.790Z,23.20
2019-05-12T07:42:24.748Z,23.20
2019-05-12T07:43:44.304Z,23.20
2019-05-12T07:45:11.374Z,23.20
2019-05-12T07:46:29.742Z,23.30
2019-05-12T07:47:54.077Z,23.30
2019-05-12T07:49:14.919Z,23.20
2019-05-12T07:50:36.411Z,23.30
2019-05-12T07:51:57.999Z,23.30
2019-05-12T07:53:20.390Z,23.30
2019-05-12T07:54:41.858Z,23.30
2019-05-12T07:56:04.229Z,23.30
2019-05-12T07:57:25.687Z,23.30
2019-05-12T07:58:54.046Z,23.30
2019-05-12T08:00:11.283Z,23.30
2019-05-12T08:01:35.780Z,23.30
2019-05-12T08:02:56.188Z,23.30
2019-05-12T08:04:17.463Z,23.30
2019-05-12T08:05:39.375Z,23.30
2019-05-12T08:07:00.771Z,23.30
2019-05-12T08:08:23.622Z,23.30
2019-05-12T08:09:45.311Z,23.30
2019-05-12T08:11:06.664Z,23.30
2019-05-12T08:12:28.107Z,23.30
2019-05-12T08:13:49.715Z,23.30
2019-05-12T08:15:11.346Z,23.30
2019-05-12T08:16:36.811Z,23.30
2019-05-12T08:17:59.568Z,23.30
2019-05-12T08:19:23.871Z,23.30
2019-05-12T08:20:43.586Z,23.30
2019-05-12T08:22:05.765Z,23.30
2019-05-12T08:23:27.314Z,23.30
2019-05-12T08:24:49.075Z,23.40
2019-05-12T08:26:13.832Z,23.40
2019-05-12T08:27:34.054Z,23.40
2019-05-12T08:28:55.878Z,23.40
2019-05-12T08:30:21.083Z,23.40
2019-05-12T08:31:44.042Z,23.40
2019-05-12T08:33:09.552Z,23.40
2019-05-12T08:34:28.150Z,23.40
2019-05-12T08:35:49.508Z,23.40
2019-05-12T08:37:11.086Z,23.40
2019-05-12T08:38:33.694Z,23.40
2019-05-12T08:40:03.260Z,23.40
2019-05-12T08:41:19.063Z,23.50
2019-05-12T08:42:43.662Z,23.50
2019-05-12T08:44:04.852Z,23.50
2019-05-12T08:45:33.655Z,23.40
2019-05-12T08:46:51.856Z,23.50
2019-05-12T08:48:19.195Z,23.40
2019-05-12T08:49:50.055Z,23.40
2019-05-12T08:51:05.268Z,23.40
2019-05-12T08:52:23.706Z,23.40
2019-05-12T08:53:44.913Z,23.40
2019-05-12T08:55:06.534Z,23.40
2019-05-12T08:56:28.322Z,23.40
2019-05-12T08:57:49.873Z,23.50
2019-05-12T08:59:16.864Z,23.50
2019-05-12T09:00:39.739Z,23.40
2019-05-12T09:02:00.447Z,23.40
2019-05-12T09:03:26.723Z,23.50
2019-05-12T09:04:51.473Z,23.40
2019-05-12T09:06:09.398Z,23.50
2019-05-12T09:07:35.816Z,23.40
2019-05-12T09:08:54.607Z,23.40
2019-05-12T09:10:16.070Z,23.50
2019-05-12T09:11:37.723Z,23.50
2019-05-12T09:12:59.495Z,23.50
2019-05-12T09:14:21.011Z,23.50
2019-05-12T09:15:43.755Z,23.50
2019-05-12T09:17:07.254Z,23.50
2019-05-12T09:18:33.544Z,23.50
2019-05-12T09:19:55.050Z,23.50
2019-05-12T09:21:14.175Z,23.50
2019-05-12T09:22:35.675Z,23.60
2019-05-12T09:23:57.176Z,23.60
2019-05-12T09:25:18.693Z,23.60
2019-05-12T09:26:40.508Z,23.60
2019-05-12T09:28:03.859Z,23.60
2019-05-12T09:29:25.302Z,23.60
2019-05-12T09:30:49.435Z,23.50
2019-05-12T09:32:09.812Z,23.50
2019-05-12T09:33:32.430Z,23.50
2019-05-12T09:34:58.103Z,23.50
2019-05-12T09:36:19.713Z,23.50
2019-05-12T09:37:40.582Z,23.50
2019-05-12T09:39:03.812Z,23.60
2019-05-12T09:40:25.874Z,23.60
2019-05-12T09:41:52.138Z,23.50
2019-05-12T09:43:10.853Z,23.60
2019-05-12T09:44:34.085Z,23.60
2019-05-12T09:45:56.365Z,23.60
2019-05-12T09:47:22.939Z,23.60
2019-05-12T09:48:45.659Z,23.60
2019-05-12T09:50:09.731Z,23.50
2019-05-12T09:51:35.237Z,23.50
2019-05-12T09:52:55.432Z,23.50
2019-05-12T09:54:15.538Z,23.60
2019-05-12T09:55:36.946Z,23.60
2019-05-12T09:56:59.803Z,23.60
2019-05-12T09:58:27.658Z,23.60
2019-05-12T09:59:45.920Z,23.70
2019-05-12T10:01:06.903Z,23.70
2019-05-12T10:02:28.289Z,23.70
2019-05-12T10:03:49.731Z,23.70
2019-05-12T10:05:11.413Z,23.80
2019-05-12T10:06:33.989Z,23.80
2019-05-12T10:07:55.663Z,23.80
2019-05-12T10:09:19.866Z,23.80
2019-05-12T10:10:44.544Z,23.80
2019-05-12T10:12:05.594Z,23.80
2019-05-12T10:13:30.141Z,23.80
2019-05-12T10:14:53.414Z,23.80
2019-05-12T10:16:14.291Z,23.80
2019-05-12T10:17:35.638Z,23.80
2019-05-12T10:18:57.259Z,23.80
2019-05-12T10:20:21.435Z,23.80
2019-05-12T10:21:43.847Z,23.70
2019-05-12T10:23:04.739Z,23.70
2019-05-12T10:24:26.280Z,23.70
2019-05-12T10:25:47.732Z,23.80
2019-05-12T10:27:09.305Z,23.70
2019-05-12T10:28:30.898Z,23.70
2019-05-12T10:29:54.252Z,23.80
2019-05-12T10:31:18.658Z,23.70
2019-05-12T10:32:38.881Z,23.80
2019-05-12T10:34:00.450Z,23.80
2019-05-12T10:35:26.175Z,23.80
2019-05-12T10:36:48.815Z,23.80
2019-05-12T10:38:10.655Z,23.80
2019-05-12T10:39:33.308Z,23.90
2019-05-12T10:40:53.994Z,23.80
2019-05-12T10:42:15.387Z,23.80
2019-05-12T10:43:36.942Z,23.90
2019-05-12T10:44:58.578Z,23.90
2019-05-12T10:46:24.441Z,23.90
2019-05-12T10:47:43.794Z,23.90
2019-05-12T10:49:05.374Z,23.90
2019-05-12T10:50:26.687Z,23.90
2019-05-12T10:51:48.551Z,23.90
2019-05-12T10:53:15.125Z,23.90
2019-05-12T10:54:34.252Z,23.90
2019-05-12T10:55:55.779Z,23.90
2019-05-12T10:57:17.710Z,23.90
2019-05-12T10:58:39.123Z,23.90
2019-05-12T11:00:00.508Z,23.90
2019-05-12T11:01:24.361Z,23.90
2019-05-12T11:02:45.263Z,23.90
2019-05-12T11:04:06.613Z,23.90
2019-05-12T11:05:28.228Z,23.90
2019-05-12T11:06:49.819Z,23.90
2019-05-12T11:08:14.099Z,23.90
2019-05-12T11:09:34.770Z,23.90
2019-05-12T11:11:00.001Z,23.90
2019-05-12T11:12:23.980Z,23.90
2019-05-12T11:13:48.615Z,23.90
2019-05-12T11:15:08.176Z,23.90
2019-05-12T11:16:31.094Z,23.90
2019-05-12T11:17:53.496Z,23.90
2019-05-12T11:19:14.951Z,23.90
2019-05-12T11:20:36.542Z,23.90
2019-05-12T11:21:58.112Z,23.90
2019-05-12T11:23:19.841Z,23.90
2019-05-12T11:24:44.224Z,23.90
2019-05-12T11:26:04.663Z,23.90
2019-05-12T11:27:25.898Z,23.90
2019-05-12T11:28:47.588Z,23.90
2019-05-12T11:30:08.782Z,23.90
2019-05-12T11:31:30.064Z,23.90
2019-05-12T11:32:53.832Z,23.90
2019-05-12T11:34:14.242Z,23.90
2019-05-12T11:35:35.823Z,23.90
2019-05-12T11:36:57.398Z,23.90
2019-05-12T11:38:19.094Z,23.90
2019-05-12T11:39:45.318Z,23.90
2019-05-12T11:41:04.262Z,23.90
2019-05-12T11:42:25.982Z,23.90
2019-05-12T11:43:47.503Z,23.90
2019-05-12T11:45:08.791Z,23.90
2019-05-12T11:46:33.415Z,23.90
2019-05-12T11:47:56.921Z,23.90
2019-05-12T11:49:21.823Z,23.90
2019-05-12T11:50:40.487Z,23.90
2019-05-12T11:52:07.680Z,23.90
2019-05-12T11:53:30.637Z,23.90
2019-05-12T11:54:51.174Z,23.90
2019-05-12T11:56:13.914Z,23.90
2019-05-12T11:57:34.951Z,23.90
2019-05-12T11:58:56.294Z,23.90
2019-05-12T12:00:17.799Z,23.90
2019-05-12T12:01:44.378Z,23.90
2019-05-12T12:03:03.776Z,23.90
2019-05-12T12:04:25.071Z,23.90
2019-05-12T12:05:46.475Z,23.90
2019-05-12T12:07:07.941Z,23.90
2019-05-12T12:08:35.215Z,23.90
2019-05-12T12:09:56.264Z,23.90
2019-05-12T12:11:24.282Z,23.90
2019-05-12T12:12:47.187Z,24.00
2019-05-12T12:14:07.757Z,23.90
2019-05-12T12:15:30.268Z,23.90
2019-05-12T12:16:50.424Z,23.90
2019-05-12T12:18:13.773Z,23.90
2019-05-12T12:19:43.690Z,24.00
2019-05-12T12:21:04.097Z,24.00
2019-05-12T12:22:26.577Z,24.00
2019-05-12T12:23:47.315Z,24.00
2019-05-12T12:25:10.870Z,24.00
2019-05-12T12:26:30.886Z,24.00
2019-05-12T12:27:53.708Z,24.00
2019-05-12T12:29:15.354Z,24.00
2019-05-12T12:30:36.836Z,24.00
2019-05-12T12:31:58.119Z,24.00
2019-05-12T12:33:19.755Z,24.00
2019-05-12T12:34:43.933Z,24.00
2019-05-12T12:36:05.010Z,24.00
2019-05-12T12:37:26.275Z,24.00
2019-05-12T12:38:47.508Z,24.00
2019-05-12T12:40:08.987Z,24.10
2019-05-12T12:41:30.639Z,24.10
2019-05-12T12:42:53.839Z,24.10
2019-05-12T12:44:14.691Z,24.10
2019-05-12T12:45:40.047Z,24.10
2019-05-12T12:47:01.528Z,24.10
2019-05-12T12:48:25.477Z,24.10
2019-05-12T12:49:49.276Z,24.10
2019-05-12T12:51:08.596Z,24.10
2019-05-12T12:52:30.160Z,24.10
2019-05-12T12:53:53.929Z,24.10
2019-05-12T12:55:14.913Z,24.10
2019-05-12T12:56:36.703Z,24.10
2019-05-12T12:57:58.197Z,24.10
2019-05-12T12:59:19.515Z,24.10
2019-05-12T13:00:47.237Z,24.10
2019-05-12T13:02:05.786Z,24.10
2019-05-12T13:03:29.902Z,24.00
2019-05-12T13:04:50.475Z,24.00
2019-05-12T13:06:13.463Z,24.00
2019-05-12T13:07:34.871Z,24.00
2019-05-12T13:08:56.318Z,24.00
2019-05-12T13:10:17.547Z,24.00
2019-05-12T13:11:39.071Z,24.00
2019-05-12T13:13:03.417Z,24.00
2019-05-12T13:14:28.261Z,24.00
2019-05-12T13:15:45.939Z,24.00
2019-05-12T13:17:07.636Z,24.00
2019-05-12T13:18:33.160Z,24.00
2019-05-12T13:19:54.713Z,24.00
2019-05-12T13:21:15.232Z,24.00
2019-05-12T13:22:37.004Z,24.00
2019-05-12T13:23:58.714Z,24.00
2019-05-12T13:25:19.959Z,23.90
2019-05-12T13:26:43.454Z,23.90
2019-05-12T13:28:10.152Z,24.00
2019-05-12T13:29:34.518Z,24.00
2019-05-12T13:30:50.116Z,24.00
2019-05-12T13:32:13.806Z,24.00
2019-05-12T13:33:34.731Z,24.00
2019-05-12T13:34:56.300Z,24.00
2019-05-12T13:36:18.510Z,23.90
2019-05-12T13:37:40.401Z,23.90
2019-05-12T13:39:01.755Z,23.90
2019-05-12T13:40:23.436Z,23.90
2019-05-12T13:41:44.647Z,23.90
2019-05-12T13:43:09.197Z,23.90
2019-05-12T13:44:30.335Z,23.90
2019-05-12T13:45:53.515Z,23.90
2019-05-12T13:47:15.085Z,23.90
2019-05-12T13:48:36.523Z,24.00
2019-05-12T13:49:57.782Z,24.00
2019-05-12T13:51:19.496Z,24.00
2019-05-12T13:52:41.480Z,24.00
2019-05-12T13:54:03.837Z,24.00
2019-05-12T13:55:25.068Z,24.00
2019-05-12T13:56:46.739Z,24.00
2019-05-12T13:58:08.162Z,24.00
2019-05-12T13:59:29.530Z,24.00
2019-05-12T14:01:12.305Z,24.00
2019-05-12T14:02:22.505Z,24.00
2019-05-12T14:03:39.835Z,24.00
2019-05-12T14:05:00.347Z,24.00
2019-05-12T14:06:31.551Z,24.00
2019-05-12T14:07:50.053Z,24.00
2019-05-12T14:09:08.739Z,24.00
2019-05-12T14:10:30.427Z,24.00
2019-05-12T14:11:53.827Z,24.00
2019-05-12T14:13:15.050Z,24.00
2019-05-12T14:14:36.627Z,23.90
2019-05-12T14:15:58.427Z,24.00
2019-05-12T14:17:19.791Z,24.00
2019-05-12T14:18:41.135Z,24.00
2019-05-12T14:20:09.416Z,23.90
2019-05-12T14:21:27.267Z,24.00
2019-05-12T14:22:48.599Z,24.00
2019-05-12T14:24:10.321Z,24.00
2019-05-12T14:25:32.868Z,24.00
2019-05-12T14:26:55.171Z,24.00
2019-05-12T14:28:16.948Z,24.00
2019-05-12T14:29:38.284Z,24.00
2019-05-12T14:30:59.579Z,24.00
2019-05-12T14:32:21.078Z,24.00
2019-05-12T14:33:44.227Z,24.00
2019-05-12T14:35:06.202Z,24.00
2019-05-12T14:36:27.583Z,24.00
2019-05-12T14:37:49.383Z,24.00
2019-05-12T14:39:13.339Z,24.00
2019-05-12T14:40:34.983Z,23.90
2019-05-12T14:41:56.663Z,24.00
2019-05-12T14:43:21.328Z,23.90
2019-05-12T14:44:44.814Z,23.90
2019-05-12T14:46:08.232Z,24.00
2019-05-12T14:47:30.100Z,24.00
2019-05-12T14:48:50.712Z,23.90
2019-05-12T14:50:14.163Z,23.90
2019-05-12T14:51:34.983Z,23.90
2019-05-12T14:52:59.730Z,23.90
2019-05-12T14:54:19.424Z,23.90
2019-05-12T14:55:41.012Z,23.90
2019-05-12T14:57:03.546Z,23.90
2019-05-12T14:58:25.159Z,23.90
2019-05-12T14:59:46.799Z,23.90
2019-05-12T15:01:08.240Z,23.90
2019-05-12T15:02:29.580Z,23.90
2019-05-12T15:03:53.401Z,23.90
2019-05-12T15:05:14.282Z,23.90
2019-05-12T15:06:35.744Z,23.90
2019-05-12T15:08:00.338Z,23.90
2019-05-12T15:09:22.436Z,23.90
2019-05-12T15:10:44.150Z,24.00
2019-05-12T15:12:05.743Z,23.90
2019-05-12T15:13:27.454Z,23.90
2019-05-12T15:14:49.014Z,23.90
2019-05-12T15:16:11.262Z,23.90
2019-05-12T15:17:33.752Z,23.90
2019-05-12T15:18:55.329Z,23.90
2019-05-12T15:20:17.087Z,23.90
2019-05-12T15:21:38.884Z,23.90
2019-05-12T15:23:00.430Z,23.90
2019-05-12T15:24:24.436Z,23.80
2019-05-12T15:25:45.142Z,23.90
2019-05-12T15:27:06.712Z,23.90
2019-05-12T15:28:27.986Z,23.90
2019-05-12T15:29:49.880Z,23.90
2019-05-12T15:31:14.421Z,23.90
2019-05-12T15:32:36.028Z,23.90
2019-05-12T15:33:57.834Z,23.90
2019-05-12T15:35:19.438Z,23.90
2019-05-12T15:36:43.687Z,23.90
2019-05-12T15:38:09.468Z,23.90
2019-05-12T15:39:27.721Z,23.90
2019-05-12T15:40:49.026Z,23.90
2019-05-12T15:42:10.641Z,23.90
2019-05-12T15:43:35.769Z,23.90
2019-05-12T15:44:56.276Z,23.90
2019-05-12T15:46:18.860Z,23.90
2019-05-12T15:47:40.371Z,23.90
2019-05-12T15:49:03.422Z,23.90
2019-05-12T15:50:26.105Z,23.90
2019-05-12T15:51:54.092Z,23.90
2019-05-12T15:53:15.942Z,23.90
2019-05-12T15:54:36.298Z,23.90
2019-05-12T15:55:58.424Z,23.90
2019-05-12T15:57:19.857Z,23.90
2019-05-12T15:58:41.572Z,23.90
2019-05-12T16:00:05.161Z,23.90
2019-05-12T16:01:27.563Z,23.90
2019-05-12T16:02:49.355Z,23.90
2019-05-12T16:04:12.013Z,23.90
2019-05-12T16:05:33.945Z,23.90
2019-05-12T16:06:57.772Z,23.90
2019-05-12T16:08:18.601Z,23.90
2019-05-12T16:09:40.111Z,23.90
2019-05-12T16:11:01.623Z,23.90
2019-05-12T16:12:26.147Z,23.90
2019-05-12T16:13:53.705Z,23.90
2019-05-12T16:15:11.339Z,23.90
2019-05-12T16:16:36.438Z,23.90
2019-05-12T16:17:59.423Z,23.90
2019-05-12T16:19:20.006Z,23.90
2019-05-12T16:20:43.612Z,23.90
2019-05-12T16:22:04.977Z,23.90
2019-05-12T16:23:29.972Z,23.90
2019-05-12T16:24:50.492Z,23.90
2019-05-12T16:26:14.723Z,23.90
2019-05-12T16:27:37.204Z,23.90
2019-05-12T16:29:05.245Z,23.90
2019-05-12T16:30:25.640Z,23.90
2019-05-12T16:31:48.459Z,23.90
2019-05-12T16:33:14.389Z,23.90
2019-05-12T16:34:30.245Z,23.90
2019-05-12T16:35:54.396Z,23.80
2019-05-12T16:37:14.701Z,23.90
2019-05-12T16:38:36.110Z,23.80
2019-05-12T16:39:57.800Z,23.90
2019-05-12T16:41:19.824Z,23.90
2019-05-12T16:42:48.197Z,23.80
2019-05-12T16:44:09.531Z,23.90
2019-05-12T16:45:27.939Z,23.90
2019-05-12T16:46:49.656Z,23.80
2019-05-12T16:48:28.605Z,23.80
2019-05-12T16:49:36.888Z,23.80
2019-05-12T16:50:57.695Z,23.80
2019-05-12T16:52:19.103Z,23.80
2019-05-12T16:53:40.409Z,23.80
2019-05-12T16:55:03.598Z,23.80
2019-05-12T16:56:27.909Z,23.80
2019-05-12T16:57:52.815Z,23.80
2019-05-12T16:59:16.816Z,23.80
2019-05-12T17:00:39.655Z,23.80
2019-05-12T17:01:59.311Z,23.80
2019-05-12T17:03:20.817Z,23.80
2019-05-12T17:04:42.430Z,23.80
2019-05-12T17:06:05.299Z,23.80
2019-05-12T17:07:27.500Z,23.80
2019-05-12T17:08:48.779Z,23.80
2019-05-12T17:10:14.512Z,23.80
2019-05-12T17:11:37.365Z,23.80
2019-05-12T17:12:57.333Z,23.80
2019-05-12T17:14:19.458Z,23.80
2019-05-12T17:15:43.314Z,23.80
2019-05-12T17:17:04.119Z,23.80
2019-05-12T17:18:25.401Z,23.80
2019-05-12T17:19:48.423Z,23.80
2019-05-12T17:21:10.867Z,23.80
2019-05-12T17:22:32.518Z,23.80
2019-05-12T17:23:53.826Z,23.80
2019-05-12T17:25:15.781Z,23.80
2019-05-12T17:26:37.464Z,23.70
2019-05-12T17:28:03.810Z,23.80
2019-05-12T17:29:24.022Z,23.70
2019-05-12T17:30:45.474Z,23.70
2019-05-12T17:32:08.009Z,23.70
2019-05-12T17:33:29.418Z,23.70
2019-05-12T17:34:53.159Z,23.70
2019-05-12T17:36:17.553Z,23.70
2019-05-12T17:37:41.318Z,23.70
2019-05-12T17:38:59.864Z,23.70